sensor_id;sensor_type;location;lat;lon;timestamp;pressure;altitude;pressure_sealevel;temperature;humidity
39363;BME280;25088;43.238;23.110;2023-01-28T00:01:37;95999.53;;;1.11;100.00
39363;BME280;25088;43.238;23.110;2023-01-28T00:04:03;95986.06;;;1.04;100.00
39363;BME280;25088;43.238;23.110;2023-01-28T00:06:28;95997.22;;;1.21;100.00
39363;BME280;25088;43.238;23.110;2023-01-28T00:08:54;95997.84;;;1.16;100.00
39363;BME280;25088;43.238;23.110;2023-01-28T00:11:21;95994.53;;;1.14;100.00
39363;BME280;25088;43.238;23.110;2023-01-28T00:13:50;95985.25;;;1.10;100.00
39363;BME280;25088;43.238;23.110;2023-01-28T00:16:17;95998.06;;;1.08;100.00
39363;BME280;25088;43.238;23.110;2023-01-28T00:18:43;95997.06;;;0.96;100.00
39363;BME280;25088;43.238;23.110;2023-01-28T00:21:11;96005.50;;;0.99;100.00
39363;BME280;25088;43.238;23.110;2023-01-28T00:23:38;96001.38;;;1.03;100.00
39363;BME280;25088;43.238;23.110;2023-01-28T00:26:10;96002.19;;;1.04;100.00
39363;BME280;25088;43.238;23.110;2023-01-28T00:28:36;96003.06;;;1.05;100.00
39363;BME280;25088;43.238;23.110;2023-01-28T00:31:17;96001.41;;;0.97;100.00
39363;BME280;25088;43.238;23.110;2023-01-28T00:33:44;96018.97;;;0.93;100.00
39363;BME280;25088;43.238;23.110;2023-01-28T00:36:11;96019.19;;;0.78;100.00
39363;BME280;25088;43.238;23.110;2023-01-28T00:38:36;96020.22;;;0.84;100.00
39363;BME280;25088;43.238;23.110;2023-01-28T00:41:15;96016.91;;;0.82;100.00
39363;BME280;25088;43.238;23.110;2023-01-28T00:43:42;96016.91;;;0.82;100.00
39363;BME280;25088;43.238;23.110;2023-01-28T00:46:10;96023.72;;;0.84;100.00
39363;BME280;25088;43.238;23.110;2023-01-28T00:48:36;96021.88;;;0.91;100.00
39363;BME280;25088;43.238;23.110;2023-01-28T00:51:03;96021.25;;;0.96;100.00
39363;BME280;25088;43.238;23.110;2023-01-28T00:53:30;96007.59;;;0.97;100.00
39363;BME280;25088;43.238;23.110;2023-01-28T00:55:55;96024.13;;;1.08;100.00
39363;BME280;25088;43.238;23.110;2023-01-28T00:58:21;96024.09;;;1.14;100.00
39363;BME280;25088;43.238;23.110;2023-01-28T01:00:50;96008.00;;;1.01;100.00
39363;BME280;25088;43.238;23.110;2023-01-28T01:03:16;96029.69;;;1.19;100.00
39363;BME280;25088;43.238;23.110;2023-01-28T01:05:42;96034.22;;;1.19;100.00
39363;BME280;25088;43.238;23.110;2023-01-28T01:08:07;96027.03;;;1.06;100.00
39363;BME280;25088;43.238;23.110;2023-01-28T01:10:33;96034.91;;;1.01;100.00
39363;BME280;25088;43.238;23.110;2023-01-28T01:12:59;96037.16;;;0.97;100.00
39363;BME280;25088;43.238;23.110;2023-01-28T01:15:25;96028.88;;;0.99;100.00
39363;BME280;25088;43.238;23.110;2023-01-28T01:17:51;96032.00;;;1.02;100.00
39363;BME280;25088;43.238;23.110;2023-01-28T01:20:23;96026.81;;;1.08;100.00
39363;BME280;25088;43.238;23.110;2023-01-28T01:22:49;96021.66;;;0.93;100.00
39363;BME280;25088;43.238;23.110;2023-01-28T01:25:16;96030.75;;;0.98;100.00
39363;BME280;25088;43.238;23.110;2023-01-28T01:27:42;96033.44;;;0.92;100.00
39363;BME280;25088;43.238;23.110;2023-01-28T01:30:10;96036.13;;;0.92;100.00
39363;BME280;25088;43.238;23.110;2023-01-28T01:32:36;96034.88;;;0.94;100.00
39363;BME280;25088;43.238;23.110;2023-01-28T01:35:03;96041.50;;;0.98;100.00
39363;BME280;25088;43.238;23.110;2023-01-28T01:37:31;96031.78;;;0.97;100.00
39363;BME280;25088;43.238;23.110;2023-01-28T01:39:57;96037.78;;;0.93;100.00
39363;BME280;25088;43.238;23.110;2023-01-28T01:42:23;96021.66;;;0.86;100.00
39363;BME280;25088;43.238;23.110;2023-01-28T01:47:23;96042.53;;;0.97;100.00
39363;BME280;25088;43.238;23.110;2023-01-28T01:49:50;96038.41;;;1.01;100.00
39363;BME280;25088;43.238;23.110;2023-01-28T01:52:19;96045.63;;;1.08;100.00
39363;BME280;25088;43.238;23.110;2023-01-28T01:54:50;96029.91;;;0.98;100.00
39363;BME280;25088;43.238;23.110;2023-01-28T01:57:21;96050.59;;;1.17;100.00
39363;BME280;25088;43.238;23.110;2023-01-28T01:59:48;96042.31;;;1.19;100.00
39363;BME280;25088;43.238;23.110;2023-01-28T02:02:14;96049.34;;;1.20;100.00
39363;BME280;25088;43.238;23.110;2023-01-28T02:04:42;96045.22;;;1.17;100.00
39363;BME280;25088;43.238;23.110;2023-01-28T02:07:10;96055.16;;;1.10;100.00
39363;BME280;25088;43.238;23.110;2023-01-28T02:09:37;96049.16;;;1.08;100.00
39363;BME280;25088;43.238;23.110;2023-01-28T02:12:11;96054.53;;;1.01;100.00
39363;BME280;25088;43.238;23.110;2023-01-28T02:14:46;96041.09;;;0.95;100.00
39363;BME280;25088;43.238;23.110;2023-01-28T02:17:13;96049.38;;;1.00;100.00
39363;BME280;25088;43.238;23.110;2023-01-28T02:19:43;96049.97;;;1.02;100.00
39363;BME280;25088;43.238;23.110;2023-01-28T02:30:55;96056.38;;;1.08;100.00
39363;BME280;25088;43.238;23.110;2023-01-28T02:33:38;96058.22;;;1.14;100.00
39363;BME280;25088;43.238;23.110;2023-01-28T02:39:02;96056.78;;;1.18;100.00
39363;BME280;25088;43.238;23.110;2023-01-28T02:41:39;96059.06;;;1.14;100.00
39363;BME280;25088;43.238;23.110;2023-01-28T02:44:07;96061.13;;;1.12;100.00
39363;BME280;25088;43.238;23.110;2023-01-28T02:46:35;96064.03;;;1.17;100.00
39363;BME280;25088;43.238;23.110;2023-01-28T02:49:27;96062.81;;;1.20;100.00
39363;BME280;25088;43.238;23.110;2023-01-28T02:55:44;96067.34;;;1.26;100.00
39363;BME280;25088;43.238;23.110;2023-01-28T03:06:27;96072.91;;;1.44;100.00
39363;BME280;25088;43.238;23.110;2023-01-28T03:09:00;96071.66;;;1.47;100.00
39363;BME280;25088;43.238;23.110;2023-01-28T03:11:53;96076.63;;;1.50;100.00
39363;BME280;25088;43.238;23.110;2023-01-28T03:14:38;96073.72;;;1.51;100.00
39363;BME280;25088;43.238;23.110;2023-01-28T03:21:03;96072.25;;;1.49;100.00
39363;BME280;25088;43.238;23.110;2023-01-28T03:27:01;96087.16;;;1.51;100.00
39363;BME280;25088;43.238;23.110;2023-01-28T03:29:47;96077.22;;;1.39;100.00
39363;BME280;25088;43.238;23.110;2023-01-28T03:32:35;96078.28;;;1.44;100.00
39363;BME280;25088;43.238;23.110;2023-01-28T03:35:21;96080.34;;;1.42;100.00
39363;BME280;25088;43.238;23.110;2023-01-28T03:38:08;96080.13;;;1.44;100.00
39363;BME280;25088;43.238;23.110;2023-01-28T03:40:55;96069.59;;;1.29;100.00
39363;BME280;25088;43.238;23.110;2023-01-28T03:43:21;96089.84;;;1.38;100.00
39363;BME280;25088;43.238;23.110;2023-01-28T03:45:47;96084.06;;;1.41;100.00
39363;BME280;25088;43.238;23.110;2023-01-28T03:48:24;96091.91;;;1.43;100.00
39363;BME280;25088;43.238;23.110;2023-01-28T03:50:51;96084.06;;;1.41;100.00
39363;BME280;25088;43.238;23.110;2023-01-28T03:53:18;96096.47;;;1.42;100.00
39363;BME280;25088;43.238;23.110;2023-01-28T03:55:46;96098.75;;;1.45;100.00
39363;BME280;25088;43.238;23.110;2023-01-28T03:58:12;96098.97;;;1.50;100.00
39363;BME280;25088;43.238;23.110;2023-01-28T04:00:38;96108.47;;;1.53;100.00
39363;BME280;25088;43.238;23.110;2023-01-28T04:03:11;96097.69;;;1.53;100.00
39363;BME280;25088;43.238;23.110;2023-01-28T04:06:01;96105.38;;;1.56;100.00
39363;BME280;25088;43.238;23.110;2023-01-28T04:08:27;96099.56;;;1.52;100.00
39363;BME280;25088;43.238;23.110;2023-01-28T04:10:53;96111.38;;;1.51;100.00
39363;BME280;25088;43.238;23.110;2023-01-28T04:13:19;96106.81;;;1.52;100.00
39363;BME280;25088;43.238;23.110;2023-01-28T04:15:45;96070.03;;;1.26;100.00
39363;BME280;25088;43.238;23.110;2023-01-28T04:18:11;96114.06;;;1.51;100.00
39363;BME280;25088;43.238;23.110;2023-01-28T04:20:37;96090.69;;;1.32;100.00
39363;BME280;25088;43.238;23.110;2023-01-28T04:23:04;96114.69;;;1.47;100.00
39363;BME280;25088;43.238;23.110;2023-01-28T04:25:30;96114.47;;;1.48;100.00
39363;BME280;25088;43.238;23.110;2023-01-28T04:27:56;96122.53;;;1.48;100.00
39363;BME280;25088;43.238;23.110;2023-01-28T04:30:22;96123.34;;;1.49;100.00
39363;BME280;25088;43.238;23.110;2023-01-28T04:32:48;96124.84;;;1.45;100.00
39363;BME280;25088;43.238;23.110;2023-01-28T04:35:17;96130.81;;;1.47;100.00
39363;BME280;25088;43.238;23.110;2023-01-28T04:37:44;96120.47;;;1.37;100.00
39363;BME280;25088;43.238;23.110;2023-01-28T04:40:10;96132.06;;;1.31;100.00
39363;BME280;25088;43.238;23.110;2023-01-28T04:42:36;96135.38;;;1.33;100.00
39363;BME280;25088;43.238;23.110;2023-01-28T04:45:02;96118.63;;;1.18;100.00
39363;BME280;25088;43.238;23.110;2023-01-28T04:47:27;96139.31;;;1.31;100.00
39363;BME280;25088;43.238;23.110;2023-01-28T04:49:53;96137.66;;;1.23;100.00
39363;BME280;25088;43.238;23.110;2023-01-28T04:52:18;96139.53;;;1.22;100.00
39363;BME280;25088;43.238;23.110;2023-01-28T04:54:44;96139.31;;;1.24;100.00
39363;BME280;25088;43.238;23.110;2023-01-28T04:57:09;96145.94;;;1.21;100.00
39363;BME280;25088;43.238;23.110;2023-01-28T04:59:35;96144.06;;;1.22;100.00
39363;BME280;25088;43.238;23.110;2023-01-28T05:02:00;96139.28;;;1.04;100.00
39363;BME280;25088;43.238;23.110;2023-01-28T05:04:26;96149.22;;;1.03;100.00
39363;BME280;25088;43.238;23.110;2023-01-28T05:06:51;96151.09;;;1.03;100.00
39363;BME280;25088;43.238;23.110;2023-01-28T05:09:17;96149.22;;;1.03;100.00
39363;BME280;25088;43.238;23.110;2023-01-28T05:11:42;96152.56;;;1.06;100.00
39363;BME280;25088;43.238;23.110;2023-01-28T05:14:08;96145.31;;;1.06;100.00
39363;BME280;25088;43.238;23.110;2023-01-28T05:16:33;96158.13;;;1.17;100.00
39363;BME280;25088;43.238;23.110;2023-01-28T05:19:00;96166.41;;;1.22;100.00
39363;BME280;25088;43.238;23.110;2023-01-28T05:21:26;96143.03;;;1.10;100.00
39363;BME280;25088;43.238;23.110;2023-01-28T05:23:52;96129.16;;;0.99;100.00
39363;BME280;25088;43.238;23.110;2023-01-28T05:26:17;96169.72;;;1.24;100.00
39363;BME280;25088;43.238;23.110;2023-01-28T05:28:43;96171.19;;;1.20;100.00
39363;BME280;25088;43.238;23.110;2023-01-28T05:31:09;96173.44;;;1.17;100.00
39363;BME280;25088;43.238;23.110;2023-01-28T05:33:35;96163.31;;;1.06;100.00
39363;BME280;25088;43.238;23.110;2023-01-28T05:36:00;96176.72;;;0.99;100.00
39363;BME280;25088;43.238;23.110;2023-01-28T05:38:26;96173.84;;;1.00;100.00
39363;BME280;25088;43.238;23.110;2023-01-28T05:40:52;96181.69;;;0.95;100.00
39363;BME280;25088;43.238;23.110;2023-01-28T05:43:17;96181.03;;;0.93;100.00
39363;BME280;25088;43.238;23.110;2023-01-28T05:45:43;96182.09;;;0.92;100.00
39363;BME280;25088;43.238;23.110;2023-01-28T05:48:08;96181.88;;;0.87;100.00
39363;BME280;25088;43.238;23.110;2023-01-28T05:50:34;96186.63;;;0.85;100.00
39363;BME280;25088;43.238;23.110;2023-01-28T05:52:59;96189.94;;;0.94;100.00
39363;BME280;25088;43.238;23.110;2023-01-28T05:55:25;96189.94;;;0.87;100.00
39363;BME280;25088;43.238;23.110;2023-01-28T05:57:50;96188.28;;;0.86;100.00
39363;BME280;25088;43.238;23.110;2023-01-28T06:00:16;96197.38;;;0.92;100.00
39363;BME280;25088;43.238;23.110;2023-01-28T06:02:42;96197.16;;;0.93;100.00
39363;BME280;25088;43.238;23.110;2023-01-28T06:05:08;96197.59;;;0.90;100.00
39363;BME280;25088;43.238;23.110;2023-01-28T06:07:35;96201.50;;;0.81;100.00
39363;BME280;25088;43.238;23.110;2023-01-28T06:10:00;96197.38;;;0.85;100.00
39363;BME280;25088;43.238;23.110;2023-01-28T06:12:26;96210.38;;;0.88;100.00
39363;BME280;25088;43.238;23.110;2023-01-28T06:14:51;96209.34;;;0.89;100.00
39363;BME280;25088;43.238;23.110;2023-01-28T06:17:17;96201.28;;;0.89;100.00
39363;BME280;25088;43.238;23.110;2023-01-28T06:19:42;96198.59;;;0.89;100.00
39363;BME280;25088;43.238;23.110;2023-01-28T06:22:08;96208.34;;;0.90;100.00
39363;BME280;25088;43.238;23.110;2023-01-28T06:24:34;96225.31;;;0.97;100.00
39363;BME280;25088;43.238;23.110;2023-01-28T06:26:59;96229.66;;;0.98;100.00
39363;BME280;25088;43.238;23.110;2023-01-28T06:29:25;96230.69;;;1.04;100.00
39363;BME280;25088;43.238;23.110;2023-01-28T06:31:50;96232.38;;;1.05;100.00
39363;BME280;25088;43.238;23.110;2023-01-28T06:34:16;96226.78;;;1.07;100.00
39363;BME280;25088;43.238;23.110;2023-01-28T06:36:42;96237.97;;;1.17;100.00
39363;BME280;25088;43.238;23.110;2023-01-28T06:39:07;96233.63;;;1.22;100.00
39363;BME280;25088;43.238;23.110;2023-01-28T06:41:33;96224.34;;;1.25;100.00
39363;BME280;25088;43.238;23.110;2023-01-28T06:43:58;96240.06;;;1.41;100.00
39363;BME280;25088;43.238;23.110;2023-01-28T06:46:24;96232.22;;;1.46;100.00
39363;BME280;25088;43.238;23.110;2023-01-28T06:48:49;96253.31;;;1.63;100.00
39363;BME280;25088;43.238;23.110;2023-01-28T06:51:15;96247.09;;;1.69;100.00
39363;BME280;25088;43.238;23.110;2023-01-28T06:53:41;96243.00;;;1.79;100.00
39363;BME280;25088;43.238;23.110;2023-01-28T06:56:07;96247.97;;;1.89;100.00
39363;BME280;25088;43.238;23.110;2023-01-28T06:58:33;96239.03;;;1.89;100.00
39363;BME280;25088;43.238;23.110;2023-01-28T07:00:59;96247.31;;;2.00;100.00
39363;BME280;25088;43.238;23.110;2023-01-28T07:03:24;96243.59;;;2.01;100.00
39363;BME280;25088;43.238;23.110;2023-01-28T07:05:50;96251.44;;;2.16;100.00
39363;BME280;25088;43.238;23.110;2023-01-28T07:08:16;96242.09;;;2.19;100.00
39363;BME280;25088;43.238;23.110;2023-01-28T07:10:42;96247.09;;;2.08;100.00
39363;BME280;25088;43.238;23.110;2023-01-28T07:13:08;96260.75;;;2.07;100.00
39363;BME280;25088;43.238;23.110;2023-01-28T07:15:34;96255.19;;;1.95;100.00
39363;BME280;25088;43.238;23.110;2023-01-28T07:17:59;96261.63;;;1.81;100.00
39363;BME280;25088;43.238;23.110;2023-01-28T07:20:25;96263.28;;;1.75;100.00
39363;BME280;25088;43.238;23.110;2023-01-28T07:22:50;96262.03;;;1.71;100.00
39363;BME280;25088;43.238;23.110;2023-01-28T07:25:16;96268.63;;;1.69;100.00
39363;BME280;25088;43.238;23.110;2023-01-28T07:27:51;96274.66;;;1.64;100.00
39363;BME280;25088;43.238;23.110;2023-01-28T07:30:18;96278.56;;;1.62;100.00
39363;BME280;25088;43.238;23.110;2023-01-28T07:32:45;96285.44;;;1.64;100.00
39363;BME280;25088;43.238;23.110;2023-01-28T07:35:11;96294.09;;;1.66;100.00
39363;BME280;25088;43.238;23.110;2023-01-28T07:37:37;96298.03;;;1.77;100.00
39363;BME280;25088;43.238;23.110;2023-01-28T07:40:02;96288.53;;;1.88;100.00
39363;BME280;25088;43.238;23.110;2023-01-28T07:42:28;96295.75;;;1.94;100.00
39363;BME280;25088;43.238;23.110;2023-01-28T07:44:53;96268.44;;;1.77;100.00
39363;BME280;25088;43.238;23.110;2023-01-28T07:47:19;96289.38;;;1.95;100.00
39363;BME280;25088;43.238;23.110;2023-01-28T07:49:44;96288.31;;;1.96;100.00
39363;BME280;25088;43.238;23.110;2023-01-28T07:52:10;96295.97;;;1.99;100.00
39363;BME280;25088;43.238;23.110;2023-01-28T07:54:35;96301.78;;;2.09;100.00
39363;BME280;25088;43.238;23.110;2023-01-28T07:57:01;96301.97;;;2.07;100.00
39363;BME280;25088;43.238;23.110;2023-01-28T07:59:26;96297.41;;;2.08;100.00
39363;BME280;25088;43.238;23.110;2023-01-28T08:01:52;96309.44;;;2.12;100.00
39363;BME280;25088;43.238;23.110;2023-01-28T08:04:20;96285.44;;;2.04;100.00
39363;BME280;25088;43.238;23.110;2023-01-28T08:06:46;96301.13;;;2.14;100.00
39363;BME280;25088;43.238;23.110;2023-01-28T08:09:11;96303.81;;;2.14;100.00
39363;BME280;25088;43.238;23.110;2023-01-28T08:11:37;96308.41;;;2.13;100.00
39363;BME280;25088;43.238;23.110;2023-01-28T08:14:04;96304.25;;;2.24;100.00
39363;BME280;25088;43.238;23.110;2023-01-28T08:16:29;96297.00;;;2.31;100.00
39363;BME280;25088;43.238;23.110;2023-01-28T08:18:55;96308.59;;;2.45;100.00
39363;BME280;25088;43.238;23.110;2023-01-28T08:21:21;96287.03;;;2.45;100.00
39363;BME280;25088;43.238;23.110;2023-01-28T08:23:46;96303.38;;;2.56;100.00
39363;BME280;25088;43.238;23.110;2023-01-28T08:26:12;96312.66;;;2.74;100.00
39363;BME280;25088;43.238;23.110;2023-01-28T08:28:37;96323.00;;;2.83;100.00
39363;BME280;25088;43.238;23.110;2023-01-28T08:31:03;96315.94;;;2.82;100.00
39363;BME280;25088;43.238;23.110;2023-01-28T08:33:28;96324.25;;;2.81;100.00
39363;BME280;25088;43.238;23.110;2023-01-28T08:35:54;96324.72;;;2.65;100.00
39363;BME280;25088;43.238;23.110;2023-01-28T08:38:19;96323.06;;;2.64;100.00
39363;BME280;25088;43.238;23.110;2023-01-28T08:40:46;96319.13;;;2.53;100.00
39363;BME280;25088;43.238;23.110;2023-01-28T08:43:12;96322.03;;;2.51;100.00
39363;BME280;25088;43.238;23.110;2023-01-28T08:45:38;96311.47;;;2.43;100.00
39363;BME280;25088;43.238;23.110;2023-01-28T08:48:06;96329.25;;;2.57;100.00
39363;BME280;25088;43.238;23.110;2023-01-28T08:50:35;96324.91;;;2.63;100.00
39363;BME280;25088;43.238;23.110;2023-01-28T08:53:13;96324.06;;;2.69;100.00
39363;BME280;25088;43.238;23.110;2023-01-28T08:55:39;96251.81;;;2.33;100.00
39363;BME280;25088;43.238;23.110;2023-01-28T08:58:06;96321.78;;;2.79;100.00
39363;BME280;25088;43.238;23.110;2023-01-28T09:00:33;96312.00;;;2.78;100.00
39363;BME280;25088;43.238;23.110;2023-01-28T09:02:58;96326.28;;;2.99;100.00
39363;BME280;25088;43.238;23.110;2023-01-28T09:05:24;96319.38;;;3.03;100.00
39363;BME280;25088;43.238;23.110;2023-01-28T09:07:49;96324.69;;;3.23;98.02
39363;BME280;25088;43.238;23.110;2023-01-28T09:10:16;96329.44;;;3.27;97.55
39363;BME280;25088;43.238;23.110;2023-01-28T09:12:42;96332.88;;;3.48;95.49
39363;BME280;25088;43.238;23.110;2023-01-28T09:15:08;96325.53;;;3.61;94.41
39363;BME280;25088;43.238;23.110;2023-01-28T09:17:34;96323.25;;;3.65;94.00
39363;BME280;25088;43.238;23.110;2023-01-28T09:19:59;96304.25;;;3.47;90.81
39363;BME280;25088;43.238;23.110;2023-01-28T09:22:25;96328.59;;;3.72;93.90
39363;BME280;25088;43.238;23.110;2023-01-28T09:24:50;96327.34;;;3.74;92.14
39363;BME280;25088;43.238;23.110;2023-01-28T09:27:16;96327.91;;;3.83;92.45
39363;BME280;25088;43.238;23.110;2023-01-28T09:29:42;96324.00;;;3.79;90.50
39363;BME280;25088;43.238;23.110;2023-01-28T09:32:07;96327.63;;;3.91;90.68
39363;BME280;25088;43.238;23.110;2023-01-28T09:34:33;96319.94;;;3.95;90.96
39363;BME280;25088;43.238;23.110;2023-01-28T09:36:59;96328.75;;;4.08;89.56
39363;BME280;25088;43.238;23.110;2023-01-28T09:39:24;96333.06;;;4.16;88.74
39363;BME280;25088;43.238;23.110;2023-01-28T09:47:14;96318.78;;;4.34;86.17
39363;BME280;25088;43.238;23.110;2023-01-28T09:49:47;96318.16;;;4.32;84.97
39363;BME280;25088;43.238;23.110;2023-01-28T09:52:18;96323.47;;;4.20;85.95
39363;BME280;25088;43.238;23.110;2023-01-28T09:54:49;96322.53;;;4.08;85.74
39363;BME280;25088;43.238;23.110;2023-01-28T09:57:22;96320.16;;;3.93;88.74
39363;BME280;25088;43.238;23.110;2023-01-28T09:59:48;96286.66;;;3.69;88.80
39363;BME280;25088;43.238;23.110;2023-01-28T10:07:56;96314.75;;;3.93;89.62
39363;BME280;25088;43.238;23.110;2023-01-28T10:16:14;96311.22;;;4.18;88.74
39363;BME280;25088;43.238;23.110;2023-01-28T10:18:55;96317.00;;;4.21;88.17
39363;BME280;25088;43.238;23.110;2023-01-28T10:21:32;96309.44;;;4.30;86.77
39363;BME280;25088;43.238;23.110;2023-01-28T10:24:05;96313.38;;;4.34;86.01
39363;BME280;25088;43.238;23.110;2023-01-28T10:26:40;96311.16;;;4.49;84.95
39363;BME280;25088;43.238;23.110;2023-01-28T10:29:17;96312.25;;;4.41;85.63
39363;BME280;25088;43.238;23.110;2023-01-28T10:31:58;96304.97;;;4.42;85.37
39363;BME280;25088;43.238;23.110;2023-01-28T10:34:26;96315.50;;;4.50;85.61
39363;BME280;25088;43.238;23.110;2023-01-28T10:36:53;96318.13;;;4.57;85.83
39363;BME280;25088;43.238;23.110;2023-01-28T10:39:21;96301.75;;;4.52;86.24
39363;BME280;25088;43.238;23.110;2023-01-28T10:41:49;96309.44;;;4.55;85.61
39363;BME280;25088;43.238;23.110;2023-01-28T10:44:17;96305.34;;;4.46;86.14
39363;BME280;25088;43.238;23.110;2023-01-28T10:46:47;96316.63;;;4.43;88.31
39363;BME280;25088;43.238;23.110;2023-01-28T10:49:21;96319.59;;;4.34;87.95
39363;BME280;25088;43.238;23.110;2023-01-28T10:51:50;96311.25;;;4.36;88.04
39363;BME280;25088;43.238;23.110;2023-01-28T10:54:27;96320.59;;;4.40;87.83
39363;BME280;25088;43.238;23.110;2023-01-28T10:56:56;96312.72;;;4.38;91.88
39363;BME280;25088;43.238;23.110;2023-01-28T10:59:31;96314.59;;;4.56;88.50
39363;BME280;25088;43.238;23.110;2023-01-28T11:02:03;96310.63;;;4.59;84.14
39363;BME280;25088;43.238;23.110;2023-01-28T11:04:31;96305.97;;;4.48;84.63
39363;BME280;25088;43.238;23.110;2023-01-28T11:07:04;96311.41;;;4.41;83.53
39363;BME280;25088;43.238;23.110;2023-01-28T11:09:44;96306.47;;;4.38;81.27
39363;BME280;25088;43.238;23.110;2023-01-28T11:12:19;96308.56;;;4.36;83.04
39363;BME280;25088;43.238;23.110;2023-01-28T11:14:55;96306.84;;;4.41;82.92
39363;BME280;25088;43.238;23.110;2023-01-28T11:17:24;96313.53;;;4.39;82.77
39363;BME280;25088;43.238;23.110;2023-01-28T11:19:52;96304.81;;;4.37;80.13
39363;BME280;25088;43.238;23.110;2023-01-28T11:22:32;96307.06;;;4.40;81.08
39363;BME280;25088;43.238;23.110;2023-01-28T11:25:02;96306.34;;;4.51;82.29
39363;BME280;25088;43.238;23.110;2023-01-28T11:27:30;96311.31;;;4.54;81.47
39363;BME280;25088;43.238;23.110;2023-01-28T11:29:57;96316.78;;;4.48;79.05
39363;BME280;25088;43.238;23.110;2023-01-28T11:32:27;96313.53;;;4.39;79.64
39363;BME280;25088;43.238;23.110;2023-01-28T11:34:54;96307.81;;;4.47;79.51
39363;BME280;25088;43.238;23.110;2023-01-28T11:37:23;96310.25;;;4.55;79.61
39363;BME280;25088;43.238;23.110;2023-01-28T11:40:00;96309.84;;;4.52;77.60
39363;BME280;25088;43.238;23.110;2023-01-28T11:42:26;96299.28;;;4.50;75.90
39363;BME280;25088;43.238;23.110;2023-01-28T11:44:52;96313.84;;;4.49;77.85
39363;BME280;25088;43.238;23.110;2023-01-28T11:47:46;96310.91;;;4.51;79.07
39363;BME280;25088;43.238;23.110;2023-01-28T11:50:35;96306.25;;;4.39;79.70
39363;BME280;25088;43.238;23.110;2023-01-28T11:56:20;96302.88;;;4.44;79.42
39363;BME280;25088;43.238;23.110;2023-01-28T12:04:45;96299.72;;;4.47;82.01
39363;BME280;25088;43.238;23.110;2023-01-28T12:07:25;96304.84;;;4.55;80.42
39363;BME280;25088;43.238;23.110;2023-01-28T12:12:53;96298.09;;;4.64;79.66
39363;BME280;25088;43.238;23.110;2023-01-28T12:15:44;96308.31;;;4.62;79.71
39363;BME280;25088;43.238;23.110;2023-01-28T12:24:22;96313.97;;;4.36;81.80
39363;BME280;25088;43.238;23.110;2023-01-28T12:32:40;96321.81;;;4.19;83.21
39363;BME280;25088;43.238;23.110;2023-01-28T12:38:47;96321.66;;;4.14;83.61
39363;BME280;25088;43.238;23.110;2023-01-28T12:41:27;96321.25;;;4.10;83.92
39363;BME280;25088;43.238;23.110;2023-01-28T12:44:01;96319.94;;;4.20;83.42
39363;BME280;25088;43.238;23.110;2023-01-28T12:49:07;96281.94;;;3.89;82.18
39363;BME280;25088;43.238;23.110;2023-01-28T12:51:59;96326.75;;;4.22;82.58
39363;BME280;25088;43.238;23.110;2023-01-28T12:54:32;96329.84;;;4.26;82.68
39363;BME280;25088;43.238;23.110;2023-01-28T12:56:59;96318.06;;;4.20;84.43
39363;BME280;25088;43.238;23.110;2023-01-28T12:59:38;96327.31;;;4.31;83.55
39363;BME280;25088;43.238;23.110;2023-01-28T13:07:26;96331.97;;;4.24;85.20
39363;BME280;25088;43.238;23.110;2023-01-28T13:10:08;96332.13;;;4.04;85.22
39363;BME280;25088;43.238;23.110;2023-01-28T13:12:38;96338.47;;;3.84;85.53
39363;BME280;25088;43.238;23.110;2023-01-28T13:15:09;96333.09;;;3.84;86.32
39363;BME280;25088;43.238;23.110;2023-01-28T13:17:35;96333.78;;;3.73;89.90
39363;BME280;25088;43.238;23.110;2023-01-28T13:20:13;96338.16;;;3.68;91.44
39363;BME280;25088;43.238;23.110;2023-01-28T13:22:38;96338.50;;;3.78;89.77
39363;BME280;25088;43.238;23.110;2023-01-28T13:25:23;96338.34;;;3.73;89.83
39363;BME280;25088;43.238;23.110;2023-01-28T13:28:00;96345.19;;;3.75;89.12
39363;BME280;25088;43.238;23.110;2023-01-28T13:30:28;96341.53;;;3.63;88.36
39363;BME280;25088;43.238;23.110;2023-01-28T13:33:02;96343.31;;;3.76;87.97
39363;BME280;25088;43.238;23.110;2023-01-28T13:38:09;96343.13;;;3.71;87.14
39363;BME280;25088;43.238;23.110;2023-01-28T13:40:39;96343.56;;;3.68;87.75
39363;BME280;25088;43.238;23.110;2023-01-28T13:43:25;96347.88;;;3.75;88.74
39363;BME280;25088;43.238;23.110;2023-01-28T13:46:03;96350.53;;;3.82;88.04
39363;BME280;25088;43.238;23.110;2023-01-28T13:51:34;96355.38;;;3.73;89.79
39363;BME280;25088;43.238;23.110;2023-01-28T13:54:14;96357.31;;;3.59;92.58
39363;BME280;25088;43.238;23.110;2023-01-28T14:02:43;96356.88;;;3.18;96.16
39363;BME280;25088;43.238;23.110;2023-01-28T14:16:43;96363.59;;;2.95;100.00
39363;BME280;25088;43.238;23.110;2023-01-28T14:19:19;96366.31;;;2.95;100.00
39363;BME280;25088;43.238;23.110;2023-01-28T14:21:47;96363.59;;;3.02;100.00
39363;BME280;25088;43.238;23.110;2023-01-28T14:24:16;96366.91;;;2.97;100.00
39363;BME280;25088;43.238;23.110;2023-01-28T14:27:06;96367.97;;;2.90;100.00
39363;BME280;25088;43.238;23.110;2023-01-28T14:32:24;96370.47;;;2.91;100.00
39363;BME280;25088;43.238;23.110;2023-01-28T14:34:54;96373.16;;;2.91;100.00
39363;BME280;25088;43.238;23.110;2023-01-28T14:37:24;96375.00;;;2.97;100.00
39363;BME280;25088;43.238;23.110;2023-01-28T14:39:53;96365.03;;;2.98;100.00
39363;BME280;25088;43.238;23.110;2023-01-28T14:42:26;96377.47;;;3.05;100.00
39363;BME280;25088;43.238;23.110;2023-01-28T14:50:17;96389.94;;;2.93;100.00
39363;BME280;25088;43.238;23.110;2023-01-28T14:58:39;96397.84;;;2.88;100.00
39363;BME280;25088;43.238;23.110;2023-01-28T15:01:20;96400.31;;;2.96;100.00
39363;BME280;25088;43.238;23.110;2023-01-28T15:03:46;96405.72;;;2.96;100.00
39363;BME280;25088;43.238;23.110;2023-01-28T15:06:17;96400.50;;;3.01;100.00